Time;durP1;ratioP1;P1;durP2;ratioP2;P2;SDS_P1;SDS_P2;PMS_P1;PMS_P2;Temp;Humidity;BMP_temperature;BMP_pressure;BME280_temperature;BME280_humidity;BME280_pressure;Samples;Min_cycle;Max_cycle;Signal;HPM_P1;HPM_P2
2022/07/30 00:00:47;;;;;;;4.90;4.50;;;;;;;17.58;80.81;100370.31;5072308;28;20710;-74
2022/07/30 00:03:13;;;;;;;3.97;3.77;;;;;;;17.68;80.49;100368.97;5072433;28;20258;-73
2022/07/30 00:05:39;;;;;;;6.10;4.67;;;;;;;17.63;80.65;100381.53;5071982;28;20201;-73
2022/07/30 00:08:06;;;;;;;4.47;4.17;;;;;;;17.65;80.47;100382.31;5072208;28;20208;-74
2022/07/30 00:10:32;;;;;;;4.80;4.40;;;;;;;17.60;80.86;100385.19;5072233;28;20228;-74
2022/07/30 00:13:00;;;;;;;5.40;4.87;;;;;;;17.58;81.24;100362.41;5072354;28;20219;-73
2022/07/30 00:15:27;;;;;;;5.17;4.67;;;;;;;17.47;81.70;100357.66;5071993;28;20224;-73
2022/07/30 00:17:53;;;;;;;4.73;4.33;;;;;;;17.47;81.96;100347.13;5072482;28;20282;-74
2022/07/30 00:20:20;;;;;;;5.17;4.67;;;;;;;17.47;82.25;100339.19;5072168;28;20221;-73
2022/07/30 00:22:46;;;;;;;5.20;4.80;;;;;;;17.44;82.56;100332.28;5072101;28;20671;-73
2022/07/30 00:25:13;;;;;;;4.50;4.17;;;;;;;17.36;83.08;100320.38;5071976;28;20211;-73
2022/07/30 00:27:40;;;;;;;5.77;5.10;;;;;;;17.33;83.59;100302.09;5071429;28;20705;-73
2022/07/30 00:30:08;;;;;;;5.33;4.47;;;;;;;17.31;84.08;100285.47;5071957;28;20724;-73
2022/07/30 00:32:35;;;;;;;5.70;4.67;;;;;;;17.25;84.46;100276.06;5072154;28;20208;-74
2022/07/30 00:35:02;;;;;;;4.57;4.27;;;;;;;17.29;84.32;100280.28;5071465;28;20674;-73
2022/07/30 00:37:28;;;;;;;5.53;4.97;;;;;;;17.27;84.27;100287.41;5072059;28;20200;-73
2022/07/30 00:39:55;;;;;;;10.27;5.00;;;;;;;17.39;83.58;100302.63;5072064;28;20228;-73
2022/07/30 00:42:24;;;;;;;4.30;4.00;;;;;;;17.39;83.46;100307.06;5071896;28;20742;-73
2022/07/30 00:44:51;;;;;;;4.77;4.40;;;;;;;17.39;83.27;100321.09;5071802;28;20216;-73
2022/07/30 00:47:19;;;;;;;5.13;4.77;;;;;;;17.52;82.79;100326.63;5071478;28;20262;-73
2022/07/30 00:49:45;;;;;;;4.40;4.10;;;;;;;17.43;83.34;100324.44;5071860;28;20236;-73
2022/07/30 00:52:12;;;;;;;4.90;4.40;;;;;;;17.45;83.84;100312.03;5071995;28;20214;-74
2022/07/30 00:54:38;;;;;;;5.73;5.20;;;;;;;17.37;84.06;100306.28;5071692;28;20612;-73
2022/07/30 00:57:05;;;;;;;4.67;4.37;;;;;;;17.37;84.48;100291.28;5071511;28;20265;-73
2022/07/30 00:59:32;;;;;;;4.87;4.03;;;;;;;17.35;84.97;100282.59;5071657;28;20918;-73
2022/07/30 01:02:00;;;;;;;4.90;4.60;;;;;;;17.32;85.49;100273.97;5071615;28;20205;-74
2022/07/30 01:04:29;;;;;;;6.03;5.43;;;;;;;17.27;85.69;100266.31;5071612;28;20220;-74
2022/07/30 01:06:55;;;;;;;5.30;4.90;;;;;;;17.40;85.51;100280.59;5071389;28;20204;-74
2022/07/30 01:09:21;;;;;;;5.30;4.90;;;;;;;17.31;86.22;100269.66;5071760;28;20220;-73
2022/07/30 01:11:48;;;;;;;5.77;5.37;;;;;;;17.24;86.77;100255.88;5071785;28;20208;-74
2022/07/30 01:14:15;;;;;;;5.77;5.37;;;;;;;17.31;86.99;100246.75;5071532;28;20616;-74
2022/07/30 01:16:42;;;;;;;7.57;6.10;;;;;;;17.22;87.53;100241.91;5070984;28;20717;-73
2022/07/30 01:22:10;;;;;;;5.43;5.03;;;;;;;17.40;87.29;100248.06;5071597;28;20690;-74
2022/07/30 01:24:45;;;;;;;5.03;4.63;;;;;;;17.56;86.39;100262.22;5071592;28;20208;-74
2022/07/30 01:27:14;;;;;;;4.90;4.60;;;;;;;17.60;85.63;100294.56;5070845;28;20208;-73
2022/07/30 01:29:42;;;;;;;5.93;5.43;;;;;;;17.36;86.82;100283.44;5071356;28;20229;-74
2022/07/30 01:32:13;;;;;;;5.00;4.60;;;;;;;17.35;86.45;100287.03;5071267;28;20666;-73
2022/07/30 01:34:42;;;;;;;5.60;5.10;;;;;;;17.34;86.92;100285.31;5071269;28;20239;-73
2022/07/30 01:37:10;;;;;;;6.00;5.50;;;;;;;17.22;87.65;100270.94;5071155;28;20232;-74
2022/07/30 01:39:39;;;;;;;5.17;4.70;;;;;;;17.36;87.68;100263.22;5071514;28;20285;-73
2022/07/30 01:42:08;;;;;;;5.23;4.83;;;;;;;17.39;87.73;100270.97;5071420;28;20212;-74
2022/07/30 01:44:37;;;;;;;6.20;5.70;;;;;;;17.49;87.44;100286.34;5071422;28;20262;-74
2022/07/30 01:47:05;;;;;;;5.87;5.37;;;;;;;17.43;87.51;100295.41;5071026;28;20269;-74
2022/07/30 01:49:34;;;;;;;5.30;4.80;;;;;;;17.53;87.39;100301.09;5071194;28;20221;-74
2022/07/30 01:52:03;;;;;;;4.60;4.30;;;;;;;17.66;87.21;100310.13;5071233;28;20666;-74
2022/07/30 01:54:31;;;;;;;5.20;4.80;;;;;;;17.74;86.52;100336.09;5071450;28;20285;-74
2022/07/30 01:57:00;;;;;;;5.43;4.90;;;;;;;17.85;85.86;100360.22;5070826;28;20270;-74
2022/07/30 01:59:27;;;;;;;7.83;5.40;;;;;;;17.90;85.28;100389.91;5074202;28;20278;-74
2022/07/30 02:01:56;;;;;;;6.23;4.70;;;;;;;17.72;85.59;100394.28;5074809;28;20208;-74
2022/07/30 02:04:22;;;;;;;5.07;4.67;;;;;;;17.88;85.15;100407.59;5074500;28;20208;-73
2022/07/30 02:06:56;;;;;;;4.40;4.10;;;;;;;18.00;84.84;100416.72;5074263;28;20888;-74
2022/07/30 02:09:31;;;;;;;4.20;4.00;;;;;;;18.14;84.44;100435.34;5074791;28;20746;-74
2022/07/30 02:14:47;;;;;;;4.57;4.17;;;;;;;18.24;84.08;100439.22;5074366;28;20203;-73
2022/07/30 02:17:22;;;;;;;4.47;3.53;;;;;;;18.26;84.12;100444.44;5074665;28;20221;-74
2022/07/30 02:19:53;;;;;;;6.00;4.43;;;;;;;18.14;84.40;100438.00;5074452;28;20631;-74
2022/07/30 02:22:21;;;;;;;5.83;5.33;;;;;;;18.04;84.22;100439.41;5074519;28;20345;-74
2022/07/30 02:24:50;;;;;;;4.40;4.07;;;;;;;18.00;85.45;100416.72;5074005;28;20209;-74
2022/07/30 02:27:22;;;;;;;4.07;3.77;;;;;;;18.10;85.11;100417.94;5073777;28;20203;-74
2022/07/30 02:29:51;;;;;;;4.27;3.97;;;;;;;18.17;84.53;100432.53;5074282;28;20232;-73
2022/07/30 02:32:21;;;;;;;3.70;3.50;;;;;;;18.26;84.37;100449.72;5074469;28;20208;-74
2022/07/30 02:34:51;;;;;;;4.80;4.40;;;;;;;18.32;83.94;100464.44;5073876;28;20208;-73
2022/07/30 02:37:21;;;;;;;5.20;4.43;;;;;;;18.29;84.46;100454.84;5073831;28;20223;-74
2022/07/30 02:39:50;;;;;;;4.53;4.13;;;;;;;18.40;83.81;100468.38;5074266;28;20282;-73
2022/07/30 02:42:19;;;;;;;4.40;4.07;;;;;;;18.44;83.14;100482.28;5074339;28;20208;-74
2022/07/30 02:44:46;;;;;;;4.70;4.30;;;;;;;18.48;82.97;100494.41;5073709;28;20212;-74
2022/07/30 02:47:15;;;;;;;4.70;4.33;;;;;;;18.52;82.68;100510.97;5073863;28;20216;-76
2022/07/30 02:49:45;;;;;;;3.80;3.60;;;;;;;18.52;82.73;100506.53;5073841;28;20228;-74
2022/07/30 02:52:14;;;;;;;4.30;4.00;;;;;;;18.54;82.81;100504.69;5074188;28;20204;-74
2022/07/30 02:54:42;;;;;;;4.57;4.17;;;;;;;18.53;82.80;100502.97;5073991;28;20212;-74
2022/07/30 02:57:10;;;;;;;4.13;3.83;;;;;;;18.48;83.34;100477.72;5073606;28;20225;-74
2022/07/30 02:59:39;;;;;;;4.23;3.90;;;;;;;18.45;83.73;100462.84;5073835;28;20225;-74
2022/07/30 03:02:07;;;;;;;4.87;4.33;;;;;;;18.41;83.98;100459.53;5072941;28;20200;-74
2022/07/30 03:04:36;;;;;;;4.40;4.10;;;;;;;18.22;85.28;100429.69;5073250;28;20258;-74
2022/07/30 03:07:05;;;;;;;4.53;4.07;;;;;;;18.25;85.24;100426.88;5072720;28;20200;-74
2022/07/30 03:09:33;;;;;;;5.07;4.77;;;;;;;18.17;85.50;100423.75;5073028;28;20586;-74
2022/07/30 03:12:02;;;;;;;5.47;5.07;;;;;;;17.86;86.78;100402.41;5072849;28;20626;-73
2022/07/30 03:14:29;;;;;;;5.87;5.37;;;;;;;17.51;88.82;100350.47;5070302;28;20698;-73
2022/07/30 03:16:58;;;;;;;5.70;5.30;;;;;;;17.39;90.61;100304.41;5072474;28;20827;-74
2022/07/30 03:19:28;;;;;;;5.00;4.60;;;;;;;17.56;90.76;100295.66;5072859;28;20220;-73
2022/07/30 03:21:56;;;;;;;4.67;4.37;;;;;;;17.67;90.15;100310.00;5072936;28;20206;-74
2022/07/30 03:24:25;;;;;;;5.87;5.47;;;;;;;17.76;89.91;100337.75;5072579;28;20667;-74
2022/07/30 03:26:53;;;;;;;6.00;4.77;;;;;;;17.80;89.61;100347.22;5072313;28;20269;-74
2022/07/30 03:29:22;;;;;;;5.27;4.80;;;;;;;17.88;89.05;100372.41;5072496;28;20224;-74
2022/07/30 03:31:49;;;;;;;6.37;5.27;;;;;;;17.93;88.93;100384.44;5070111;28;20239;-74
2022/07/30 03:34:17;;;;;;;5.43;5.03;;;;;;;18.02;88.68;100391.91;5072705;28;20281;-74
2022/07/30 03:36:44;;;;;;;4.90;4.60;;;;;;;18.08;88.16;100413.66;5072042;28;20266;-74
2022/07/30 03:39:11;;;;;;;4.77;4.33;;;;;;;18.11;87.69;100429.38;5072341;28;20274;-74
2022/07/30 03:41:40;;;;;;;4.73;4.43;;;;;;;18.11;87.92;100437.28;5072415;28;20216;-73
2022/07/30 03:44:08;;;;;;;5.40;5.03;;;;;;;18.11;88.19;100432.00;5072562;28;20318;-74
2022/07/30 03:46:36;;;;;;;5.83;5.37;;;;;;;18.11;88.28;100432.00;5072842;28;20204;-74
2022/07/30 03:49:04;;;;;;;5.87;5.47;;;;;;;18.03;88.58;100427.94;5072557;28;20273;-73
2022/07/30 03:51:31;;;;;;;5.50;5.07;;;;;;;18.03;89.08;100412.09;5072239;28;20205;-74
2022/07/30 03:53:59;;;;;;;5.47;5.10;;;;;;;17.97;89.86;100408.91;5072688;28;20208;-74
2022/07/30 03:56:25;;;;;;;5.60;5.13;;;;;;;17.94;89.69;100412.59;5072222;28;20271;-74
2022/07/30 03:58:53;;;;;;;5.70;5.27;;;;;;;17.97;89.90;100412.41;5072507;28;20257;-74
2022/07/30 04:01:24;;;;;;;5.53;5.00;;;;;;;18.00;90.44;100401.72;5072354;28;20212;-74
2022/07/30 04:03:51;;;;;;;5.70;5.20;;;;;;;17.97;90.97;100401.84;5072747;28;20254;-74
2022/07/30 04:06:17;;;;;;;5.57;5.17;;;;;;;17.95;91.25;100400.22;5072222;28;20262;-74
2022/07/30 04:08:43;;;;;;;6.03;5.53;;;;;;;17.90;91.11;100411.03;5072338;28;20251;-74
2022/07/30 04:11:10;;;;;;;5.63;5.17;;;;;;;17.94;90.54;100422.28;5072439;28;20205;-74
2022/07/30 04:13:36;;;;;;;5.77;5.33;;;;;;;17.98;90.37;100448.47;5072233;28;20245;-74
2022/07/30 04:16:09;;;;;;;6.47;5.67;;;;;;;17.97;90.59;100446.75;5072161;28;20262;-74
2022/07/30 04:18:40;;;;;;;6.10;5.50;;;;;;;17.98;90.51;100447.63;5072381;28;20281;-74
2022/07/30 04:21:10;;;;;;;6.17;5.77;;;;;;;18.00;90.73;100445.75;5071867;28;20238;-74
2022/07/30 04:23:38;;;;;;;6.40;5.90;;;;;;;17.98;91.01;100455.53;5072146;28;20710;-74
2022/07/30 04:26:05;;;;;;;5.90;5.50;;;;;;;17.95;90.83;100464.47;5071731;28;20731;-74
2022/07/30 04:28:32;;;;;;;6.13;5.77;;;;;;;17.98;90.97;100463.47;5071969;28;20677;-74
2022/07/30 04:30:58;;;;;;;5.60;5.20;;;;;;;18.04;90.50;100471.09;5072012;28;20662;-74
2022/07/30 04:33:26;;;;;;;5.70;5.20;;;;;;;18.07;89.83;100484.13;5072151;28;20625;-74
2022/07/30 04:35:53;;;;;;;5.70;5.30;;;;;;;18.13;89.46;100498.81;5071578;28;20708;-74
2022/07/30 04:38:20;;;;;;;5.60;5.13;;;;;;;18.16;88.95;100511.91;5071828;28;20269;-74
2022/07/30 04:40:47;;;;;;;6.07;5.60;;;;;;;18.16;89.18;100517.19;5071940;28;20266;-74
2022/07/30 04:43:14;;;;;;;6.70;5.30;;;;;;;18.15;88.89;100515.47;5072207;28;20216;-74
2022/07/30 04:45:42;;;;;;;5.53;5.13;;;;;;;18.21;88.65;100531.00;5071759;28;20204;-74
2022/07/30 04:48:08;;;;;;;6.07;5.57;;;;;;;18.21;88.57;100531.84;5071791;28;20216;-74
2022/07/30 04:50:40;;;;;;;6.90;6.40;;;;;;;18.09;89.57;100505.19;5071852;28;20254;-74
2022/07/30 04:53:08;;;;;;;5.57;5.10;;;;;;;18.01;90.02;100487.91;5071002;28;20208;-74
2022/07/30 04:55:35;;;;;;;6.27;5.77;;;;;;;18.03;89.99;100491.34;5071678;28;20619;-74
2022/07/30 04:58:03;;;;;;;5.17;4.77;;;;;;;18.08;89.62;100499.06;5071865;28;20276;-74
2022/07/30 05:00:29;;;;;;;5.80;5.40;;;;;;;18.08;89.49;100508.75;5071583;28;20633;-74
2022/07/30 05:02:57;;;;;;;6.37;6.00;;;;;;;17.66;92.07;100455.31;5071735;28;20720;-74
2022/07/30 05:05:26;;;;;;;6.70;6.10;;;;;;;17.32;94.78;100392.69;5071299;28;20674;-74
2022/07/30 05:07:55;;;;;;;8.37;7.03;;;;;;;16.85;97.30;100342.13;5071704;28;20211;-74
2022/07/30 05:10:21;;;;;;;8.77;8.10;;;;;;;16.54;100.00;100289.94;5071754;28;20230;-74
2022/07/30 05:12:48;;;;;;;8.93;8.13;;;;;;;16.22;100.00;100268.56;5071724;28;20269;-74
2022/07/30 05:15:14;;;;;;;9.77;8.97;;;;;;;16.12;100.00;100269.91;5071433;28;20257;-74
2022/07/30 05:17:41;;;;;;;10.43;9.53;;;;;;;16.10;100.00;100292.81;5071450;28;20226;-74
2022/07/30 05:20:08;;;;;;;10.37;9.67;;;;;;;16.15;100.00;100338.22;5070670;28;20293;-74
2022/07/30 05:22:35;;;;;;;10.63;9.77;;;;;;;16.18;100.00;100380.22;5071272;28;20204;-74
2022/07/30 05:25:03;;;;;;;10.33;9.67;;;;;;;16.12;100.00;100409.47;5070738;28;20215;-75
2022/07/30 05:27:29;;;;;;;11.23;10.23;;;;;;;16.19;100.00;100431.13;5071252;28;20192;-74
2022/07/30 05:29:56;;;;;;;11.03;10.13;;;;;;;16.25;100.00;100451.94;5070969;28;20257;-75
2022/07/30 05:32:22;;;;;;;11.60;10.70;;;;;;;16.18;100.00;100467.16;5071165;28;20204;-75
2022/07/30 05:34:49;;;;;;;9.23;8.63;;;;;;;16.30;100.00;100478.09;5074579;28;20212;-75
2022/07/30 05:37:15;;;;;;;10.83;10.00;;;;;;;16.37;100.00;100490.94;5074317;28;20284;-74
2022/07/30 05:39:41;;;;;;;11.13;10.27;;;;;;;16.24;100.00;100487.97;5074556;28;20238;-75
2022/07/30 05:42:09;;;;;;;11.67;10.73;;;;;;;16.26;100.00;100493.16;5074845;28;20207;-74
2022/07/30 05:44:36;;;;;;;12.70;11.70;;;;;;;16.15;100.00;100498.88;5074777;28;20204;-74
2022/07/30 05:47:02;;;;;;;13.20;12.13;;;;;;;16.19;100.00;100497.81;5074231;28;20616;-74
2022/07/30 05:49:29;;;;;;;13.20;12.23;;;;;;;16.06;100.00;100504.53;5074636;28;20281;-74
2022/07/30 05:51:55;;;;;;;13.20;12.17;;;;;;;16.22;100.00;100517.94;5074494;28;20208;-75
2022/07/30 05:54:21;;;;;;;11.70;10.63;;;;;;;16.37;100.00;100513.78;5074413;28;20955;-75
2022/07/30 05:56:48;;;;;;;12.53;11.67;;;;;;;16.40;100.00;100517.16;5074001;28;20227;-74
2022/07/30 05:59:16;;;;;;;12.83;11.83;;;;;;;16.40;100.00;100525.06;5074620;28;20247;-74
2022/07/30 06:01:42;;;;;;;12.50;11.40;;;;;;;16.45;100.00;100530.13;5074393;28;20193;-74
2022/07/30 06:04:08;;;;;;;11.50;10.70;;;;;;;16.47;100.00;100536.19;5074454;28;20210;-75
2022/07/30 06:06:35;;;;;;;11.03;10.17;;;;;;;16.58;100.00;100536.59;5073786;28;20203;-75
2022/07/30 06:09:01;;;;;;;10.90;10.00;;;;;;;16.79;100.00;100533.97;5074211;28;20273;-74
2022/07/30 06:11:28;;;;;;;11.20;10.40;;;;;;;16.73;100.00;100540.38;5074661;28;20273;-75
2022/07/30 06:13:54;;;;;;;11.23;10.43;;;;;;;16.88;100.00;100545.00;5074436;28;20661;-74
2022/07/30 06:16:22;;;;;;;9.30;8.63;;;;;;;17.05;100.00;100541.63;5074212;28;20215;-75
2022/07/30 06:18:48;;;;;;;9.23;8.53;;;;;;;17.09;100.00;100554.69;5071576;28;20758;-75
2022/07/30 06:21:15;;;;;;;9.53;8.93;;;;;;;17.25;100.00;100559.22;5074184;28;20351;-75
2022/07/30 06:23:41;;;;;;;8.50;7.90;;;;;;;17.38;100.00;100571.84;5073919;28;20284;-74
2022/07/30 06:26:07;;;;;;;9.10;8.30;;;;;;;17.52;100.00;100580.00;5073877;28;20238;-74
2022/07/30 06:28:34;;;;;;;9.20;8.47;;;;;;;17.63;100.00;100593.56;5073918;28;20193;-75
2022/07/30 06:31:01;;;;;;;9.00;8.33;;;;;;;17.62;98.65;100612.97;5073754;28;20788;-75
2022/07/30 06:33:29;;;;;;;9.10;8.50;;;;;;;17.69;97.66;100628.53;5070885;28;20712;-75
2022/07/30 06:35:55;;;;;;;8.63;8.00;;;;;;;17.55;97.58;100635.28;5072751;28;20258;-74
2022/07/30 06:38:22;;;;;;;8.73;7.60;;;;;;;17.67;97.61;100639.16;5073332;28;20759;-75
2022/07/30 06:40:48;;;;;;;9.80;9.00;;;;;;;17.75;97.46;100637.03;5073700;28;20270;-74
2022/07/30 06:43:15;;;;;;;7.10;6.60;;;;;;;17.89;97.41;100625.84;5073309;28;20252;-75
2022/07/30 06:45:41;;;;;;;8.87;8.17;;;;;;;18.00;96.67;100630.66;5073023;28;20216;-74
2022/07/30 06:48:08;;;;;;;8.27;7.60;;;;;;;18.03;95.87;100651.63;5073437;28;20197;-75
2022/07/30 06:50:36;;;;;;;8.60;7.90;;;;;;;18.02;95.46;100664.00;5073367;28;20216;-75
2022/07/30 06:53:03;;;;;;;7.93;7.37;;;;;;;18.15;95.01;100660.78;5073288;28;20693;-76
2022/07/30 06:55:29;;;;;;;7.40;6.77;;;;;;;18.23;95.12;100656.81;5073450;28;20230;-75
2022/07/30 06:57:56;;;;;;;7.57;6.97;;;;;;;18.32;94.91;100652.91;5073341;28;20223;-74
2022/07/30 07:00:22;;;;;;;8.37;7.80;;;;;;;18.41;94.71;100656.88;5073326;28;20701;-74
2022/07/30 07:02:49;;;;;;;9.20;8.50;;;;;;;18.11;96.22;100632.78;5073299;28;20205;-74
2022/07/30 07:05:15;;;;;;;7.87;7.27;;;;;;;18.24;97.06;100608.34;5073074;28;20208;-74
2022/07/30 07:07:43;;;;;;;8.20;7.70;;;;;;;18.45;96.30;100627.59;5072915;28;20208;-74
2022/07/30 07:10:10;;;;;;;6.70;6.30;;;;;;;18.67;95.83;100626.53;5073470;28;20220;-75
2022/07/30 07:12:37;;;;;;;7.37;6.87;;;;;;;18.83;95.70;100643.38;5073542;28;20258;-74
2022/07/30 07:15:04;;;;;;;7.13;6.70;;;;;;;18.92;95.42;100642.06;5072617;28;20203;-74
2022/07/30 07:17:30;;;;;;;6.30;5.80;;;;;;;18.95;93.31;100688.66;5073306;28;20228;-74
2022/07/30 07:19:57;;;;;;;6.97;6.40;;;;;;;19.07;92.17;100709.25;5073313;28;20227;-74
2022/07/30 07:22:23;;;;;;;7.47;6.97;;;;;;;19.18;92.53;100706.03;5073282;28;20599;-75
2022/07/30 07:24:51;;;;;;;6.33;5.83;;;;;;;18.92;88.90;100763.75;5073030;28;20209;-74
2022/07/30 07:27:18;;;;;;;5.73;5.33;;;;;;;19.10;89.01;100769.91;5073309;28;20208;-75
2022/07/30 07:29:44;;;;;;;5.63;5.23;;;;;;;18.98;90.46;100746.72;5073069;28;20225;-74
2022/07/30 07:32:11;;;;;;;6.47;5.93;;;;;;;18.94;89.85;100747.81;5073163;28;20234;-74
2022/07/30 07:34:37;;;;;;;6.00;5.60;;;;;;;19.09;91.65;100693.25;5072338;28;20212;-74
2022/07/30 07:37:03;;;;;;;5.70;5.27;;;;;;;19.02;91.46;100674.19;5072455;28;20577;-74
2022/07/30 07:39:30;;;;;;;5.60;5.10;;;;;;;18.92;92.01;100667.66;5073069;28;20277;-74
2022/07/30 07:41:58;;;;;;;5.87;5.37;;;;;;;18.79;89.78;100717.63;5073072;28;20338;-74
2022/07/30 07:44:24;;;;;;;5.37;4.87;;;;;;;18.90;90.11;100714.50;5072806;28;20200;-75
2022/07/30 07:46:51;;;;;;;5.20;4.70;;;;;;;19.13;90.19;100703.63;5072424;28;20204;-75
2022/07/30 07:49:17;;;;;;;5.27;4.87;;;;;;;19.28;91.55;100672.00;5072039;28;20224;-75
2022/07/30 07:51:43;;;;;;;4.97;4.63;;;;;;;19.27;90.27;100675.63;5072740;28;20208;-75
2022/07/30 07:54:10;;;;;;;4.10;3.90;;;;;;;18.97;86.66;100782.06;5072572;28;20261;-75
2022/07/30 07:56:36;;;;;;;5.40;5.00;;;;;;;18.87;88.80;100749.91;5071762;28;20254;-74
2022/07/30 07:59:04;;;;;;;5.37;5.07;;;;;;;19.02;90.89;100669.75;5072250;28;20227;-75
2022/07/30 08:01:31;;;;;;;5.07;4.60;;;;;;;18.95;90.17;100656.91;5072637;28;20673;-75
2022/07/30 08:03:57;;;;;;;4.47;4.10;;;;;;;18.97;88.21;100734.44;5072477;28;20257;-75
2022/07/30 08:06:23;;;;;;;4.40;4.10;;;;;;;18.84;86.40;100797.66;5072163;28;20204;-74
2022/07/30 08:08:50;;;;;;;4.50;4.20;;;;;;;18.92;87.00;100750.53;5072536;28;20204;-74
2022/07/30 08:11:16;;;;;;;5.10;4.70;;;;;;;18.99;89.47;100688.44;5072675;28;20258;-74
2022/07/30 08:13:43;;;;;;;4.80;4.40;;;;;;;18.98;88.65;100684.06;5072412;28;20238;-75
2022/07/30 08:16:10;;;;;;;4.70;4.33;;;;;;;18.90;88.23;100690.69;5071545;28;20278;-74
2022/07/30 08:18:37;;;;;;;4.67;4.37;;;;;;;18.90;89.13;100688.91;5072054;28;20702;-74
2022/07/30 08:21:04;;;;;;;5.17;4.73;;;;;;;19.13;89.25;100676.31;5072480;28;20316;-74
2022/07/30 08:23:30;;;;;;;5.50;5.00;;;;;;;19.30;90.26;100647.16;5072636;28;20267;-74
2022/07/30 08:25:58;;;;;;;4.20;4.00;;;;;;;19.21;87.14;100729.72;5072103;28;20254;-74
2022/07/30 08:28:24;;;;;;;4.20;3.90;;;;;;;19.18;84.93;100772.19;5072254;28;20201;-74
2022/07/30 08:30:51;;;;;;;4.30;4.00;;;;;;;19.33;85.83;100778.53;5071957;28;20259;-74
2022/07/30 08:33:18;;;;;;;4.50;4.10;;;;;;;19.57;86.02;100774.63;5071882;28;20675;-74
2022/07/30 08:35:45;;;;;;;5.10;4.70;;;;;;;19.75;86.06;100775.50;5071873;28;20282;-74
2022/07/30 08:38:12;;;;;;;3.87;3.63;;;;;;;19.43;82.97;100815.03;5072009;28;20632;-74
2022/07/30 08:40:39;;;;;;;4.70;4.40;;;;;;;19.61;83.76;100831.81;5072072;28;20290;-74
2022/07/30 08:43:07;;;;;;;5.00;4.70;;;;;;;19.85;84.79;100812.97;5072606;28;20251;-80
2022/07/30 08:45:34;;;;;;;5.03;4.53;;;;;;;19.97;86.01;100766.44;5071880;28;20200;-80
2022/07/30 08:48:02;;;;;;;5.07;4.67;;;;;;;20.13;87.70;100738.16;5072151;28;20219;-79
2022/07/30 08:50:29;;;;;;;4.80;4.40;;;;;;;20.03;84.49;100801.41;5072458;28;20225;-79
2022/07/30 08:52:56;;;;;;;3.87;3.63;;;;;;;20.21;82.82;100838.50;5073422;28;20227;-80
2022/07/30 08:55:23;;;;;;;4.00;3.63;;;;;;;20.32;81.63;100883.84;5075407;28;20204;-80
2022/07/30 08:57:50;;;;;;;3.63;3.43;;;;;;;20.20;79.68;100941.03;5077913;28;20240;-80
2022/07/30 09:00:18;;;;;;;4.03;3.83;;;;;;;20.36;80.17;100938.44;5077478;28;20261;-80
2022/07/30 09:02:45;;;;;;;4.40;4.10;;;;;;;20.53;80.36;100918.13;5078073;28;20205;-81
2022/07/30 09:05:12;;;;;;;4.13;3.80;;;;;;;20.10;77.04;100973.34;5077116;28;20659;-81
2022/07/30 09:07:40;;;;;;;4.00;3.70;;;;;;;19.82;78.87;100978.25;5079942;28;20548;-80
2022/07/30 09:10:09;;;;;;;3.87;3.67;;;;;;;19.96;80.44;100919.28;5081624;28;20235;-81
2022/07/30 09:12:38;;;;;;;4.23;3.83;;;;;;;19.99;80.11;100907.66;5081711;28;20666;-80
2022/07/30 09:15:11;;;;;;;4.17;3.97;;;;;;;20.00;80.38;100891.69;5081329;28;20205;-81
2022/07/30 09:17:48;;;;;;;4.13;3.83;;;;;;;20.23;81.84;100849.88;5082035;28;20201;-81
2022/07/30 09:20:15;;;;;;;4.63;4.20;;;;;;;20.38;82.00;100835.81;5081705;28;20610;-80
2022/07/30 09:22:45;;;;;;;4.30;4.10;;;;;;;20.54;82.41;100811.13;5082407;28;20200;-81
2022/07/30 09:25:11;;;;;;;4.10;3.90;;;;;;;20.46;80.71;100867.22;5082019;28;20200;-80
2022/07/30 09:27:45;;;;;;;4.10;3.90;;;;;;;20.56;80.91;100865.78;5081663;28;20221;-80
2022/07/30 09:30:12;;;;;;;3.63;3.43;;;;;;;20.52;78.63;100949.09;5081290;28;20259;-80
2022/07/30 09:32:49;;;;;;;3.80;3.50;;;;;;;20.64;78.71;100934.38;5081947;28;20254;-80
2022/07/30 09:35:16;;;;;;;3.57;3.33;;;;;;;20.57;77.39;100968.31;5081938;28;20204;-80
2022/07/30 09:37:45;;;;;;;3.77;3.47;;;;;;;20.53;78.15;100968.53;5084415;28;20244;-79
2022/07/30 09:40:14;;;;;;;3.67;3.47;;;;;;;20.56;76.45;100989.59;5082413;28;20783;-81
2022/07/30 09:42:41;;;;;;;3.50;3.30;;;;;;;20.54;76.47;101018.84;5083132;28;20209;-81
2022/07/30 09:45:10;;;;;;;3.33;3.03;;;;;;;20.66;77.83;100974.94;5082740;28;20205;-81
2022/07/30 09:47:37;;;;;;;2.97;2.70;;;;;;;20.75;74.49;101043.44;5081817;28;20208;-81
2022/07/30 09:50:06;;;;;;;2.53;2.37;;;;;;;20.76;73.33;101107.97;5082430;28;20219;-81
2022/07/30 09:52:33;;;;;;;2.63;2.43;;;;;;;20.82;73.48;101113.81;5083166;28;20266;-80
2022/07/30 09:55:01;;;;;;;2.87;2.67;;;;;;;20.87;71.66;101120.69;5081151;28;20248;-80
2022/07/30 09:57:27;;;;;;;2.70;2.50;;;;;;;20.83;71.20;101163.31;5081243;28;20208;-80
2022/07/30 09:59:55;;;;;;;2.97;2.70;;;;;;;21.00;72.58;101143.88;5081350;28;20232;-80
2022/07/30 10:02:29;;;;;;;2.60;2.40;;;;;;;20.97;69.67;101207.75;5081645;28;20252;-81
2022/07/30 10:05:08;;;;;;;2.57;2.47;;;;;;;21.11;71.15;101171.66;5082507;28;20189;-80
2022/07/30 10:07:35;;;;;;;3.00;2.70;;;;;;;21.27;71.06;101153.13;5082871;28;20738;-81
2022/07/30 10:10:03;;;;;;;2.87;2.67;;;;;;;21.41;70.06;101169.22;5082908;28;20229;-80
2022/07/30 10:12:32;;;;;;;2.87;2.53;;;;;;;21.49;66.64;101248.56;5082543;28;20227;-80
2022/07/30 10:15:00;;;;;;;2.33;2.23;;;;;;;21.56;65.44;101295.94;5081886;28;20215;-80
2022/07/30 10:17:27;;;;;;;2.50;2.30;;;;;;;21.56;64.24;101359.72;5081609;28;20211;-81
2022/07/30 10:19:54;;;;;;;2.70;2.50;;;;;;;21.59;65.56;101340.97;5081204;28;20251;-80
2022/07/30 10:22:21;;;;;;;2.00;1.90;;;;;;;21.79;66.70;101286.78;5081939;28;20212;-80
2022/07/30 10:24:50;;;;;;;3.57;2.17;;;;;;;21.90;66.75;101264.97;5081934;28;20209;-80
2022/07/30 10:27:18;;;;;;;2.20;2.07;;;;;;;21.99;65.46;101282.22;5082578;28;20884;-81
2022/07/30 10:29:45;;;;;;;2.20;2.10;;;;;;;21.90;64.84;101310.16;5082532;28;20560;-81
2022/07/30 10:32:11;;;;;;;2.40;2.20;;;;;;;22.03;65.26;101291.75;5082016;28;20216;-81
2022/07/30 10:34:38;;;;;;;2.23;2.13;;;;;;;22.21;66.15;101258.84;5082448;28;20209;-82
2022/07/30 10:37:06;;;;;;;2.70;2.50;;;;;;;22.20;65.23;101258.94;5082039;28;20227;-81
2022/07/30 10:39:37;;;;;;;2.57;2.37;;;;;;;22.09;65.19;101288.75;5081190;28;20236;-81
2022/07/30 10:42:18;;;;;;;2.23;2.13;;;;;;;22.08;63.07;101300.38;5081165;28;20900;-81
2022/07/30 10:45:02;;;;;;;2.40;2.30;;;;;;;22.27;63.17;101326.84;5080943;28;20205;-81
2022/07/30 10:47:29;;;;;;;2.60;2.00;;;;;;;22.41;62.13;101366.84;5079958;28;20208;-81
2022/07/30 10:50:10;;;;;;;2.43;2.23;;;;;;;22.55;62.30;101362.59;5080941;28;20278;-81
2022/07/30 10:52:45;;;;;;;2.50;2.30;;;;;;;22.57;61.26;101379.34;5081497;28;20208;-81
2022/07/30 10:55:15;;;;;;;2.37;2.27;;;;;;;22.72;63.30;101343.06;5081357;28;20204;-81
2022/07/30 10:58:03;;;;;;;2.30;2.10;;;;;;;22.82;62.20;101362.88;5081256;28;20724;-82
2022/07/30 11:00:33;;;;;;;2.33;2.13;;;;;;;22.97;61.42;101354.06;5083128;28;20225;-80
2022/07/30 11:03:26;;;;;;;2.93;2.50;;;;;;;22.78;60.76;101372.84;5084850;28;20207;-80
2022/07/30 11:06:25;;;;;;;2.33;2.03;;;;;;;22.90;62.76;101362.47;5049224;28;20231;-79
2022/07/30 11:08:52;;;;;;;2.40;2.30;;;;;;;23.15;60.93;101354.84;5083008;28;20273;-81
2022/07/30 11:11:45;;;;;;;2.63;2.50;;;;;;;23.28;61.81;101343.47;5080935;28;20205;-80
2022/07/30 11:14:12;;;;;;;2.80;2.60;;;;;;;23.57;61.17;101334.63;5083676;28;20236;-82
2022/07/30 11:17:00;;;;;;;2.70;2.30;;;;;;;23.70;59.64;101374.72;5084594;28;20272;-81
2022/07/30 11:19:27;;;;;;;2.10;2.00;;;;;;;23.91;59.07;101385.97;5084137;28;20383;-81
2022/07/30 11:22:23;;;;;;;2.13;2.03;;;;;;;24.18;58.50;101409.25;5079760;28;20552;-80
2022/07/30 11:24:50;;;;;;;2.57;2.10;;;;;;;24.01;55.55;101450.28;5079101;28;20213;-80
2022/07/30 11:27:34;;;;;;;2.20;2.10;;;;;;;24.22;58.56;101441.94;5079065;28;20542;-80
2022/07/30 11:30:01;;;;;;;2.60;2.40;;;;;;;24.39;56.35;101450.63;5078641;28;20226;-80
2022/07/30 11:32:31;;;;;;;2.53;2.33;;;;;;;24.72;56.01;101476.25;5079715;28;20202;-82